METARS
Date METAR Location Area
25/05/2015 LG1B 252030Z 20303KT 18/11 Q1009 Arsakeio Athens
25/05/2015 LGY7 252030Z 00000KT 19/15 Q1010 Aegina Attica
26/05/2015 LG37 252145Z 2022592G7830KT 187/120 Q10078 Agia Paraskeyi Attica
25/05/2015 LG5C 252030Z 27002KT 21/12 Q1011 Alimos Attica
25/05/2015 LGH5 252230Z 20301KT 21/12 Q1009 Ampelokipoi Attica
25/05/2015 LGS5 252130Z 13500KT 19/13 Q1009 Anavissos Attica
25/05/2015 LGO0 252130Z 20303KT 19/11 Q1010 Ano Liosia Attica
25/05/2015 LG9B 252130Z 18002KT 21/12 Q1009 Aspropirgos Attica
25/05/2015 LGB9 252130Z 22500KT 21/11 Q1011 Athens - Gazi Attica
25/05/2015 LGL5 252230Z 15803KT 18/12 Q1013 Ekali Attica
25/05/2015 LGS3 252130Z 27003KT 21/12 Q1009 Faliro Attica
25/05/2015 LGM3 252130Z 22502KT 22/12 Q1010 Hydra Attica
25/05/2015 LGI4 252000Z 00000KT 216/154 Q10099 Hydra Attica
25/05/2015 LGO2 251030Z 29306KT 20/05 Q1010 Imittos Attica
25/05/2015 LGT8 252130Z 00000KT 14/07 Q1010 Ippokratios Attica
25/05/2015 LG99 252130Z 02303KT 19/11 Q1010 Kantza Attica
25/05/2015 LG13 252015Z 00000KT 18/12 Q1011 Kifissia Attica
25/05/2015 LG3C 252130Z 31502KT 21/10 Q1008 Korydallos Attica
25/05/2015 LGD6 252130Z 27001KT 20/14 Q1008 Lavrio Attica
25/05/2015 LGK0 252130Z 24801KT 20/11 Q1010 Marousi Attica
03/05/2015 LG00 032110Z 00000KT 15/09 Q1014 Marousi (Anavrita) Attica
25/05/2015 LGR0 252130Z 27000KT 21/11 Q1010 Nea Smirni Attica
25/05/2015 LGM8 252130Z 24800KT 21/12 Q1011 Neos Kosmos Attica
25/05/2015 LGA3 251230Z 25007KT 22/07 Q1007 Pallini - Kantza 2 Attica
25/05/2015 LGK3 252130Z 31509KT 12/06 Q1009 Parnitha 1230 EAA Attica
25/05/2015 LGT6 252130Z 27000KT 21/11 Q1010 Patissia Attica
26/05/2015 LG67 252200Z 2927830G16524KT 194/107 Q10094 Penteli Attica
25/05/2015 LGX9 252130Z 29301KT 17/11 Q1007 Penteli Attica
25/05/2015 LG6D 252130Z 20303KT 21/12 Q1009 Perama Attica
25/05/2015 LGU0 252130Z 27001KT 20/10 Q1010 Peristeri Attica
25/05/2015 LGY6 252130Z 29303KT 21/11 Q1009 Porto Rafti Attica
25/05/2015 LG96 252130Z 24801KT 20/12 Q1010 Psychico Attica
18/05/2015 LGZ0 180430Z 33804KT 16/14 Q1014 Rafina Attica
25/05/2015 LG2B 252130Z 31503KT 21/12 Q1009 SEF Attica
22/05/2015 LGG2 221930Z 00000KT 00/00 Q 0 Spata Attica
25/05/2015 LGS6 252130Z 31508KT 21/15 Q1009 Spetses Attica
25/05/2015 LG3B 252130Z 00000KT 16/11 Q1011 Tatoi Attica
25/05/2015 LGZ2 252130Z 27008KT 21/11 Q1010 Vari Attica
25/05/2015 LGR6 252130Z 24808KT 15/10 Q1010 Vilia Attica
25/05/2015 LG1D 252130Z 27001KT 19/11 Q1010 Vrilissia Attica
24/05/2015 LG74 240200Z 00000KT 191/135 Q10065 Ymittos Attica
25/05/2015 LGG1 252000Z 00000KT 185/103 Q162 Kalivia Thorikou Attica E
25/05/2015 LG45 252130Z 18003KT 20/13 Q1012 Markopoulo Attica E
25/05/2015 LG72 252000Z 00000KT 196/89 Q10073 Keratea Attica SE
23/05/2015 LGW4 230830Z 20303KT 26/08 Q1001 Ag. Ioannis Sfakion Crete
25/05/2015 LGJ9 252130Z 27003KT 20/14 Q1011 Aghios Nikolaos Crete
25/05/2015 LGT4 252230Z 18003KT 15/09 Q1013 Alikianos Crete
25/05/2015 LGB6 252130Z 24803KT 17/05 Q1008 Anogeia Crete
25/05/2015 LGZ6 252130Z 27000KT 13/10 Q1013 Askyfou Crete
25/05/2015 LG25 252230Z 27004KT 17/12 Q1010 Chania Crete
25/05/2015 LGN3 252130Z 18002KT 17/10 Q1011 Chania Center Crete
25/05/2015 LG61 252130Z 22503KT 20/15 Q1010 Cost - Irakleio Crete
25/05/2015 LG2C 252230Z 00000KT 13/07 Q1009 Elos Crete
25/05/2015 LGL9 252130Z 13500KT 17/14 Q1010 Falasarna Crete
25/05/2015 LG9A 252130Z 22502KT 18/11 Q1010 Finokalia - Lasithi Crete
25/05/2015 LGL1 252230Z 00000KT 19/07 Q1010 Fourfouras Crete
25/05/2015 LGD4 252230Z 15804KT 16/14 Q1011 Fragmapotamon - Rethymno Crete
25/05/2015 LG30 252130Z 18003KT 17/13 Q1011 Heraklion - Knossos Crete
25/05/2015 LG95 252130Z 04503KT 19/14 Q1012 Ierapetra Crete
25/05/2015 LGP0 252130Z 00002KT 18/15 Q1011 Lentas Hrakleion Crete
25/05/2015 LGD7 252130Z 00000KT 15/13 Q1011 Metaxochori - Heraklion Crete
25/05/2015 LGI2 252130Z 04501KT 17/15 Q1011 Mires Crete
25/05/2015 LG36 252130Z 02302KT 19/11 Q1010 Paleochora Crete
25/05/2015 LG8A 252130Z 27001KT 16/14 Q1011 Pirathi Heraklion Crete
25/05/2015 LG58 252130Z 18005KT 19/14 Q1009 Rethymno Crete
25/05/2015 LGT2 252130Z 09000KT 17/14 Q1011 Rethymno - Plakia Crete
25/05/2015 LGY1 252130Z 00000KT 16/12 Q1013 Samaria Crete
25/05/2015 LGB4 252130Z 29300KT 17/M01 Q1011 Samaria Crete
25/05/2015 LGM2 252130Z 22501KT 18/13 Q1009 Sitia Crete
22/05/2015 LG75 221830Z 31501KT 24/04 Q1014 Spili - Rethymnon Crete
25/05/2015 LG8B 252130Z 22503KT 17/13 Q1011 Stavrakia - Heraclion Crete
25/05/2015 LG50 252130Z 00000KT 11/09 Q1011 Tzermiado Lasithi Crete
25/05/2015 LG7B 251430Z 27005KT 22/14 Q1012 Vagionia - Heraklion Crete
25/05/2015 LG70 252130Z 06801KT 15/11 Q1010 Vrysses Crete
25/05/2015 LGT5 252130Z 18001KT 20/15 Q1010 Amorgos Cyclades
25/05/2015 LGN6 252130Z 02301KT 20/14 Q1010 Andros Cyclades
25/05/2015 LGS7 252130Z 22506KT 20/17 Q1010 Donoussa Cyclades
25/05/2015 LGI0 252130Z 02303KT 19/16 Q1010 Ios Cyclades
25/05/2015 LGP5 252130Z 22501KT 19/16 Q1010 Iraklia Cyclades
25/05/2015 LGE3 252230Z 27000KT 20/10 Q1010 Kea Cyclades
25/05/2015 LGX8 252130Z 24804KT 20/17 Q1010 Koufonissia Cyclades
25/05/2015 LGS0 252130Z 24804KT 18/15 Q1011 Milos Cyclades
25/05/2015 LG66 252130Z 20303KT 20/17 Q1010 Mykonos Cyclades
25/05/2015 LGM0 252130Z 15805KT 19/16 Q1010 Naxos Cyclades
25/05/2015 LGV3 252130Z 33801KT 11/07 Q1011 Naxos - Apiranthos Cyclades
25/05/2015 LGT0 252030Z 00000KT 00/00 Q 0 Naxos - Apollonas Cyclades
25/05/2015 LGU1 252130Z 00000KT 16/14 Q1010 Naxos - Damarionas Cyclades
25/05/2015 LGU2 252130Z 13501KT 17/06 Q1010 Naxos - Koronos Cyclades
25/05/2015 LGN7 252130Z 11303KT 16/13 Q1011 Naxos - Kynidaros Cyclades
25/05/2015 LGW1 252130Z 24800KT 17/15 Q1010 Naxos - Melanes Cyclades
25/05/2015 LGO7 252130Z 13503KT 19/16 Q1010 Naxos - Mikri Vigla Cyclades
25/05/2015 LG02 252130Z 11305KT 19/16 Q1011 Paros Cyclades
25/05/2015 LGX5 252130Z 22509KT 18/15 Q1009 Santorini Cyclades
16/05/2015 LGX7 161330Z 15806KT 21/17 Q1021 Schinoussa Cyclades
30/04/2015 LG07 292230Z 00000G31104KT 286/132 Q10124 Tinos Cyclades
25/05/2015 LGB8 252130Z 00000KT 19/14 Q1010 Tinos NOA Cyclades
25/05/2015 LGAB 252230Z 24810KT 17/12 Q1010 Emponas - Rhodes Dodecanese
25/05/2015 LGG6 252130Z 18002KT 20/17 Q1012 Kalymnos Dodecanese
25/05/2015 LGAC 250530Z 31507KT 20/15 Q1011 Kattavia - Rhodes Dodecanese
25/05/2015 LGAA 252230Z 18001KT 20/15 Q1012 Lindos - Rhodes Dodecanese
25/05/2015 LG65 252130Z 18000KT 20/16 Q1011 Patmos Dodecanese
25/05/2015 LGS9 252130Z 24800KT 19/15 Q1013 Rhodes Dodecanese
25/05/2015 LGM5 252130Z 22501KT 19/14 Q1010 Kasos Dodecanisa
25/05/2015 LGX1 252130Z 20302KT 19/15 Q1011 Kos Dodekanissa
19/05/2015 LG4A 191030Z 22504KT 27/10 Q1008 Chios East Aegean
25/05/2015 LG6C 252230Z 15803KT 20/14 Q1010 Chios Town East Aegean
25/05/2015 LGT1 252130Z 00000KT 19/17 Q1009 Fournoi East Aegean
25/05/2015 LGI9 252130Z 15802KT 15/09 Q1008 Ikaria East Aegean
25/05/2015 LGI5 252130Z 15802KT 19/16 Q1007 Lemnos East Aegean
18/04/2015 LGI6 181030Z 15806G17KT 22/13 Q1014 Lesvos East Aegean
25/05/2015 LGJ3 252130Z 29301KT 18/14 Q1011 Lesvos - Thermi East Aegean
20/05/2015 LGZ7 201530Z 33807KT 18/07 Q1018 Mantamados East Aegean
25/05/2015 LGY5 252130Z 13509KT 19/12 Q1010 Molyvos East Aegean
25/05/2015 LGF1 252230Z 18005KT 19/16 Q1009 Samos East Aegean
25/05/2015 LG2D 252130Z 00000KT 18/16 Q1010 Agia Paraskeui Lesvos East Aegen
25/05/2015 LGW7 252130Z 18005KT 19/10 Q1009 Akrotirio Paksimada Evia
25/05/2015 LGO3 252230Z 09002KT 20/10 Q1007 Chalkida Evia
25/05/2015 LGR5 252030Z 31500KT 21/10 Q1009 Kavodoro Evia
09/05/2015 LGY0 090700Z 11300KT 09/05 Q1034 Krieza Evia
25/05/2015 LGX0 252130Z 29301KT 19/11 Q1010 Kymi Evia
08/05/2015 LGT7 081630Z 15801KT 15/11 Q1013 Setta Evia
25/05/2015 LG81 252130Z 00000KT 15/10 Q1008 Steni Evia
22/05/2015 LGC4 221030Z 15800KT 26/13 Q1015 Styra Evia
25/05/2015 LGD3 252130Z 22504KT 19/13 Q1010 Zarakes Evia
25/05/2015 LGP6 252130Z 27000KT 10/09 Q1013 Agia Kyriaki Ioanninon Hepirus
24/05/2015 LGO1 241330Z 31501KT 27/17 Q1005 Aridaia Hepirus
25/05/2015 LGD2 251330Z 22510KT 22/13 Q1012 Arta - Kompoti Hepirus
25/05/2015 LG38 252230Z 04501KT 17/14 Q1012 Arta - Vlacherna Hepirus
27/04/2015 LGE4 270630Z 06803KT 14/08 Q1015 Aspraggeloi Hepirus
25/05/2015 LGI3 252130Z 00001KT 10/09 Q1011 Derviziana Hepirus
25/05/2015 LGP4 252130Z 04501KT 11/08 Q1011 Dodoni Hepirus
02/05/2015 LGL8 021430Z 02304KT 24/07 Q1015 Grammos Hepirus
25/05/2015 LG43 252230Z 04503KT 14/10 Q1012 Igoumenitsa Hepirus
25/05/2015 LG49 252130Z 00000KT 10/08 Q1010 Ioannina Anatoli Hepirus
25/05/2015 LGK1 251030Z 31502KT 24/15 Q1013 Kanali, Preveza Hepirus
25/05/2015 LGE0 252130Z 13501KT 11/10 Q1012 Katarraktis - Arta Hepirus
25/05/2015 LGO5 252130Z 29300KT 11/08 Q1010 Kerasovo Konitsa Hepirus
19/05/2015 LG3A 191430Z 22504KT 23/13 Q1007 Konitsa Hepirus
25/05/2015 LGO8 252230Z 00000KT 08/06 Q1011 Metsovo Hepirus
19/05/2015 LGK6 190530Z 13500KT 14/11 Q1008 Papigo Hepirus
25/05/2015 LGF6 252030Z 00000KT 11/08 Q1012 Paramythia Hepirus
25/05/2015 LGK9 252130Z 06801KT 16/12 Q1013 Parga Hepirus
25/05/2015 LGK7 252030Z 02301KT 13/10 Q1012 Pesta Hepirus
25/05/2015 LGY9 252030Z 22502KT 09/06 Q 994 Plikati Ioanninon Hepirus
25/05/2015 LGP1 252130Z 09001KT 13/11 Q1012 Pramanta Hepirus
25/05/2015 LGK2 252030Z 11301KT 11/10 Q1011 Theodoriana, Arta Hepirus
25/05/2015 LGD0 252130Z 02301KT 09/07 Q1010 Tristeno - Ioannina Hepirus
25/05/2015 LGM4 252130Z 33800KT 11/09 Q1011 Tyria Hepirus
25/05/2015 LGR8 252130Z 00000KT 12/11 Q1012 Vourgareli Artas Hepirus
19/05/2015 LGN9 191430Z 29301KT 19/08 Q1006 Vovoussa Hepirus
25/05/2015 LGN0 252130Z 20300KT 11/09 Q1011 Zitsa Hepirus
25/05/2015 LGJ2 252130Z 00000KT 17/13 Q1011 Corfu - Gouvia Ionio
25/05/2015 LGB0 252130Z 31503KT 19/14 Q1012 Ithaki Ionio
25/05/2015 LGI7 252130Z 29305KT 19/15 Q1013 Lefkada Ionio
25/05/2015 LGN1 252130Z 27002KT 17/14 Q1011 Paxoi Ionio
25/05/2015 LGN4 252130Z 00000KT 14/11 Q1011 Zakynthos Ionio
25/05/2015 LGG9 252130Z 18001KT 12/07 Q1008 Amynteo Macedonia
25/05/2015 LG33 252230Z 00001KT 15/09 Q1007 Chalkidiki - Polygyros Macedonia
20/05/2015 LGJ1 201730Z 09000KT 23/18 Q1010 Chalkidiki - Stratoni Macedonia
25/05/2015 LGZ5 252130Z 18002KT 19/16 Q1007 Didymoteicho Macedonia
20/05/2015 LG55 202230Z 27001KT 18/12 Q1010 Dion Macedonia
25/05/2015 LGU8 252130Z 15801KT 17/14 Q1007 Doxato - Drama Macedonia
25/05/2015 LGH3 252150Z 30400KT 15/14 Q1007 Drama Macedonia
25/05/2015 LGH6 252230Z 04502KT 16/15 Q1007 Drama 2 Macedonia
25/05/2015 LGY3 252130Z 20306KT 18/15 Q1008 Eleutheroupoli Macedonia
18/05/2015 LGJ6 181050Z 16812KT 08/02 Q1011 Falakro Macedonia
25/05/2015 LG63 252230Z 00000KT 12/07 Q1012 Florina Macedonia
25/05/2015 LGZ8 251930Z 31500KT 20/17 Q1008 Fotolivos Macedonia
25/05/2015 LG73 252130Z 31503KT 18/10 Q1007 Giannitsa Macedonia
25/05/2015 LGF2 252130Z 31500KT 11/08 Q1010 Grevena Macedonia
25/05/2015 LGO4 252130Z 00000KT 16/07 Q1009 Hmathia - Rizomata Macedonia
25/05/2015 LG7D 252130Z 00000KT 20/15 Q1006 Iera Moni Megistis Lauras Macedonia
25/05/2015 LG93 252130Z 31512KT 03/M01 Q1011 Kaimaktsalan Macedonia
25/05/2015 LG4D 252130Z 06802KT 16/14 Q1007 Kalampaki Drama Macedonia
25/05/2015 LGO9 250430Z 29300KT 19/18 Q1008 Kassandreia (Xalkidiki) Macedonia
25/05/2015 LGC0 252130Z 24801KT 12/07 Q1009 Kastoria Macedonia
25/05/2015 LG27 252150Z 16300KT 20/18 Q1008 Kavala - Dexameni Macedonia
05/05/2015 LGA2 052147Z 00000KT 01/00 Q1022 Kavala - Eleftheroupoli Macedonia
25/05/2015 LG5D 252130Z 04501KT 13/06 Q1009 Kerasia Edessas Macedonia
25/05/2015 LG42 252130Z 29300KT 18/08 Q1006 Kilkis Macedonia
25/05/2015 LGW8 252130Z 04500KT 19/13 Q1008 Kimisi Macedonia
25/05/2015 LGJ4 252130Z 29304KT 13/07 Q1012 Kozani - Ardassa Macedonia
25/05/2015 LGP3 252130Z 29301KT 07/05 Q1009 Lailias - Serres Macedonia
25/05/2015 LGZ9 252130Z 29301KT 13/07 Q1010 Mavropigi Macedonia
25/05/2015 LG3D 252130Z 33803KT 16/15 Q1008 Mikrokampos Drama Macedonia
25/05/2015 LG40 252130Z 24800KT 18/07 Q1009 Naousa Macedonia
25/05/2015 LG4B 252130Z 00000KT 16/14 Q1007 Nea Peramos Macedonia
25/05/2015 LGZ4 252230Z 09002KT 20/14 Q1007 Neos Marmaras Macedonia
25/05/2015 LG48 252130Z 06803KT 14/11 Q1008 Nevrokopi Drama Macedonia
25/05/2015 LGS4 251130Z 27003KT 20/06 Q1008 Notio Pedio - Eordea Macedonia
25/05/2015 LGW0 252130Z 00000KT 15/14 Q1009 Paranesti Macedonia
25/05/2015 LG26 252130Z 29302KT 12/07 Q1008 Ptolemaida Macedonia
25/05/2015 LG87 252130Z 18007KT 07/04 Q1010 Seli Ski Center Macedonia
25/05/2015 LGW6 252130Z 06801KT 20/16 Q1008 Serres Macedonia
25/05/2015 LGD9 252130Z 00000KT 18/13 Q1008 Serres - Kerkini Macedonia
25/05/2015 LG14 250500Z 00000G31104KT 174/121 Q10082 Serres - Proti Macedonia
25/05/2015 LG5B 252130Z 18004KT 19/16 Q1008 Thasos Macedonia
07/05/2015 LGY8 071419Z 31505KT 9999 SCT036 10/00 Q1010 Thassos Macedonia
25/05/2015 LGR9 252030Z 09000KT 21/14 Q1008 Thessaloniki Macedonia
25/05/2015 LGF0 252130Z 27002KT 13/07 Q1008 Variko Macedonia
16/05/2015 LG82 160630Z 27009KT 06/01 Q1022 Vassilitsa Macedonia
22/05/2015 LGC2 221330Z 02300KT 24/18 Q1011 Vatopedi - Athos Macedonia
25/05/2015 LGE9 252030Z 11300KT 14/07 Q1010 Vegoritida Macedonia
25/05/2015 LGE5 252130Z 15800KT 20/09 Q1007 Veroia Macedonia
25/05/2015 LG98 252030Z 18001KT 09/05 Q1010 Vlasti - Kozani Macedonia
02/05/2015 LGF5 020200Z 17500KT 10/08 Q1012 Vounochori - Kavala Macedonia
26/05/2015 LGU5 261230Z 06805KT -RA 13/11 Q1014 Agioi Theodoroi Peloponissos
25/05/2015 LGU7 252130Z 06800KT 12/07 Q1011 Alagonia - Messinia Peloponissos
25/05/2015 LG52 252130Z 06800KT 15/13 Q1011 Amaliada Peloponissos
25/05/2015 LG77 252130Z 18000KT 12/10 Q1012 Andritsaina Peloponissos
25/05/2015 LGU6 252130Z 00000KT 18/13 Q1012 Arfara - Messinia Peloponissos
25/05/2015 LGT3 252130Z 24802KT 18/11 Q1010 Argos Peloponissos
25/05/2015 LGV0 252130Z 27005KT 19/14 Q1009 Derveni Peloponissos
28/04/2015 LGK4 280630Z 15801KT -RA 03/02 Q1021 Elati Peloponissos
25/05/2015 LGC3 252130Z 00000KT 11/10 Q1010 Foloi - Ilia Peloponissos
25/05/2015 LGX6 252130Z 18002KT 18/10 Q1011 Geraki Peloponissos
25/05/2015 LGB7 252130Z 04500KT 16/14 Q1011 Ilia - Vartholomio Peloponissos
25/05/2015 LG85 252130Z 33817KT 20/15 Q1009 Isthmos Peloponissos
25/05/2015 LG6A 252130Z 31502KT 20/13 Q1011 Kalamata Peloponissos
22/05/2015 LGV7 221530Z 31502KT 25/11 Q1010 Kalavryta Peloponissos
25/05/2015 LGZ3 252130Z 18003KT 18/14 Q1011 Kardamyli Peloponissos
10/04/2015 LG0C 101130Z 02303KT 17/M01 Q1027 Kastritsi Peloponissos
25/05/2015 LGJ5 252130Z 04506KT 19/15 Q1011 Katakolo Peloponissos
25/05/2015 LGP7 252230Z 02300KT 10/08 Q1011 Kato Vlassia Peloponissos
27/04/2015 LGB2 272000Z 20301KT 27/23 Q1011 Katoachaia Peloponissos
25/05/2015 LGB5 252130Z 31502KT 18/14 Q1010 Kavomalias Peloponissos
25/05/2015 LGM7 252130Z 29302KT 18/14 Q1011 Kranidi Peloponissos
25/05/2015 LGV1 252130Z 09001KT 18/13 Q1011 Kyparissia Peloponissos
25/05/2015 LGW9 252130Z 33800KT 11/08 Q1011 Lagadia Peloponissos
25/05/2015 LG0A 251030Z 18005KT 18/09 Q1013 Lampia - Ilia Peloponissos
25/05/2015 LG92 252130Z 06801KT 16/13 Q1010 Lappa-Larissos-Achaia Peloponissos
25/05/2015 LG4C 252130Z 29301KT 11/08 Q1011 Levidi Peloponissos
07/05/2015 LG91 070630Z 00000KT 21/15 Q1012 Lousika-Olenias-Achaia Peloponissos
25/05/2015 LGV4 252130Z 24802KT 17/06 Q1011 Lykochia Peloponissos
25/05/2015 LGG5 252130Z 22500KT 12/11 Q1011 Megalopoli Peloponissos
25/05/2015 LGV2 252130Z 29300KT 14/12 Q1012 Messinia - Kopanaki Peloponissos
25/05/2015 LGF8 252130Z 02301KT 18/14 Q1010 Molaoi Peloponissos
25/05/2015 LG56 251830Z 22514KT 21/14 Q1010 Monemvasia Peloponissos
25/05/2015 LGE1 252130Z 06803KT 17/11 Q1009 Nemea Peloponissos
25/05/2015 LGD5 252130Z 33800KT 13/08 Q1011 Oleni - Ilia Peloponissos
25/05/2015 LGB3 252130Z 00000KT 15/12 Q1011 Olympia Peloponissos
30/04/2015 LGV6 300430Z 24816KT 00/00 Q1011 Panachaiko Oros Peloponissos
25/05/2015 LGZ1 252130Z 18001KT 18/14 Q1010 Patra Peloponissos
22/05/2015 LG79 220305Z 00000KT 194/143 Q10135 Patra - Agia Peloponissos
26/05/2015 LG71 252200Z 2021728G3456KT 178/137 Q10110 Patra - Drosia Peloponissos
25/05/2015 LG84 252130Z 24806KT 19/16 Q1012 Patra - Port Peloponissos
25/05/2015 LGG7 252130Z 00000KT 13/11 Q1012 Pinia Peloponissos
25/05/2015 LG59 252230Z 13501KT 18/13 Q1010 Pirgos Peloponissos
25/05/2015 LGH8 252130Z 24803KT 19/15 Q1012 Rio Peloponissos
25/05/2015 LGT9 252230Z 11302KT 16/13 Q1010 Romanos - Patra Peloponissos
25/05/2015 LGA0 252230Z 00000KT 16/13 Q1010 Sagaiika Peloponissos
25/05/2015 LGF7 250830Z 00000KT 24/12 Q1010 Sparti Peloponissos
25/05/2015 LGS2 252130Z 00000KT 11/07 Q1012 Stemnitsa Peloponissos
25/05/2015 LGR1 252130Z 24810KT 12/07 Q1008 Trikala Korinthias Peloponissos
25/05/2015 LG83 252230Z 00000KT 11/09 Q1011 Tripoli Peloponissos
25/05/2015 LGU9 252130Z 00000KT 08/07 Q1012 Vytina Peloponissos
25/05/2015 LG86 252130Z 06801KT 15/12 Q1011 Zaxaro Peloponissos
25/05/2015 LGN2 252130Z 18002KT 20/15 Q1010 Alonissos Sporades
25/05/2015 LGI1 252130Z 11309KT 21/14 Q1009 Skyros Sporades
25/05/2015 LGH9 252130Z 13501KT 18/13 Q1014 Agrinio Sterea Ellada
25/05/2015 LGC7 252130Z 00003KT 19/14 Q1011 Aitoliko Sterea Ellada
25/05/2015 LG29 252230Z 22501KT 14/09 Q1009 Amfiklia Sterea Ellada
25/05/2015 LGH1 250350Z 00000KT 141/64 Q10093 Amfiklia 2 Sterea Ellada
25/05/2015 LGG8 252130Z 29302KT 17/11 Q1013 Antikira Sterea Ellada
25/05/2015 LG97 252210Z 00000KT 13/08 Q1009 Arachova Sterea Ellada
25/05/2015 LGC5 252130Z 29301KT 12/08 Q1012 Arahova Sterea Ellada
25/05/2015 LGH0 252030Z 24805KT 19/10 Q1008 Avlida Sterea Ellada
25/05/2015 LGR2 251430Z 24815KT 21/12 Q1009 Dam of Mornos Sterea Ellada
25/05/2015 LGR3 252130Z 06800KT 13/09 Q1012 Diakopi of Lidoriki Sterea Ellada
25/05/2015 LGW5 252130Z 24803KT 17/07 Q1009 Domokos Sterea Ellada
14/05/2015 LG21 141323Z 24804KT 29/15 Q1014 Evia - Chalkida Sterea Ellada
25/05/2015 LGY4 252130Z 29314KT 19/10 Q1010 Galaxidi Sterea Ellada
26/05/2015 LGC8 252200Z 00000KT 158/123 Q10100 Gavalou - Aitol/nia Sterea Ellada
25/05/2015 LGJ7 252130Z 18016KT 18/11 Q1010 Kaparelli Sterea Ellada
25/05/2015 LGC9 252130Z 00000KT 07/06 Q1013 Karpenisi Sterea Ellada
25/05/2015 LGP9 252130Z 22505KT 18/10 Q1007 Kleidi Viotias Sterea Ellada
25/05/2015 LGR4 252130Z 22500KT 12/09 Q1011 Koniakos of Lidoriki Sterea Ellada
25/05/2015 LG5A 252130Z 18003KT 19/09 Q1009 Kopaida Sterea Ellada
25/05/2015 LGV9 252030Z 31505KT 21/09 Q1008 Lamia Sterea Ellada
25/05/2015 LGJ8 252130Z 09000KT 16/11 Q1008 Lefkochori Sterea Ellada
25/05/2015 LGI8 251330Z 22503KT 27/09 Q1009 Livadeia Sterea Ellada
25/05/2015 LGE7 252130Z 27003KT 19/09 Q1007 Makrakomi Sterea Ellada
25/05/2015 LGA6 252130Z 27002KT 09/07 Q1008 Mavrolithari - Vardousia Sterea Ellada
25/05/2015 LGK8 252230Z 20301KT 09/07 Q1009 Myriki Sterea Ellada
25/05/2015 LGG4 252130Z 00000KT 11/08 Q1011 Orini Nafpaktia Sterea Ellada
20/05/2015 LGA4 200900Z 22502G16KT 01/01 Q1009 Parnassos Sterea Ellada
18/05/2015 LGF9 180830Z 00000KT 07/M04 Q1016 Parnassos1950 Sterea Ellada
23/05/2015 LGL0 231530Z 31502KT 29/03 Q1007 Polydroso Sterea Ellada
07/05/2015 LGR7 071230Z 04508KT 11/09 Q1025 Prasino - Viotia Sterea Ellada
25/05/2015 LG69 252230Z 29302KT 20/09 Q1009 Tanagra Sterea Ellada
25/05/2015 LGO6 252130Z 29303KT 18/12 Q1009 Theologos Sterea Ellada
17/04/2015 LG46 171050Z 2705238G13878KT 212/95 Q266 Eptapyrgio Thes/niki
26/05/2015 LG94 252130Z 00000KT 173/120 Q10080 Hortiatis Thes/niki
25/05/2015 LG15 252213Z 08701KT 23/00 Q1014 Kamara Thes/niki Thes/niki
25/05/2015 LGA5 252130Z 00000KT 17/13 Q1008 Lagadas Thes/niki
25/05/2015 LG7C 252130Z 04503KT 20/11 Q1008 Nea Michaniona Thes/niki
25/05/2015 LG8C 252130Z 29300KT 18/14 Q1008 Sindos Thes/niki
24/05/2015 LG11 240730Z 12901KT 10/06 Q1006 West Thes/niki Thes/niki
19/05/2015 LGV5 192330Z 24800KT 12/11 Q1009 Tsamantas Thesprotia
25/05/2015 LGL4 252130Z 02303KT 11/08 Q1012 Gardiki Thessalia
25/05/2015 LGW3 252130Z 11303KT 18/09 Q1007 Kalabaka Thessalia
25/05/2015 LG2A 252130Z 31503KT 19/09 Q1009 Karditsa Thessalia
26/05/2015 LG41 252200Z 2251728G4320KT 202/79 Q10072 Larissa Thessalia
25/05/2015 LGL6 252130Z 22500KT 20/10 Q1008 Larissa Thessalia
26/05/2015 LGU3 252100Z 00000G3456KT 206/98 Q10067 Larissa Thessalia
25/05/2015 LGS8 252130Z 00000KT 17/10 Q1008 Larissa - Agia Thessalia
25/05/2015 LGL7 252130Z 20315KT 12/07 Q1007 Limni Plastira Thessalia
25/05/2015 LG6B 250630Z 27004KT 19/11 Q1007 Moni Paou Thessalia
26/05/2015 LGU4 260700Z 29304KT 04/M07 Q1013 Olympos Thessalia
26/05/2015 LG7A 252200Z 3374320G8694KT 221/85 Q10088 Pedio Areos Volou Thessalia
25/05/2015 LGE2 252130Z 24805KT 10/06 Q1009 Pertouli Thessalia
09/05/2015 LGY2 091500Z 04516KT 22/07 Q1010 Portaria - Pelio Thessalia
25/05/2015 LG80 252130Z 20304KT 21/13 Q1010 Skopelos - Sporades Thessalia
21/05/2015 LG24 210430Z 33800KT 17/15 Q1012 Sporades - Skiathos Thessalia
13/05/2015 LG57 131130Z 24803KT 24/10 Q1019 Trikala Thessalia
25/05/2015 LG51 252130Z 00003KT 22/12 Q1008 Volos Thessalia
25/05/2015 LGG3 252130Z 27007KT 19/08 Q1011 Zagora EAA Thessalia
25/05/2015 LGD8 252130Z 22506KT 20/18 Q1008 Alexandroupolis Thraki
25/05/2015 LGM9 252130Z 22505KT 21/19 Q1006 Imeros Thraki
10/05/2015 LG35 102238Z 10600KT 06/01 Q1026 Komotini Thraki
25/05/2015 LGL2 252130Z 22501KT 19/15 Q1007 Metaxades - Evros Thraki
25/05/2015 LG31 252130Z 18002KT 19/14 Q1006 Orestiada Thraki
25/05/2015 LGC1 252130Z 15805KT 19/16 Q1009 Samothraki Thraki
25/05/2015 LGC6 252130Z 00000KT 18/16 Q1008 Xanthi Thraki
www.meteorologia.gr